sensor_id;sensor_type;location;lat;lon;timestamp;P1;durP1;ratioP1;P2;durP2;ratioP2
39860;SDS011;25529;49.346;20.886;2023-03-19T00:02:20;55.17;;;26.73;;
39860;SDS011;25529;49.346;20.886;2023-03-19T00:04:45;54.35;;;25.40;;
39860;SDS011;25529;49.346;20.886;2023-03-19T00:07:11;57.25;;;26.25;;
39860;SDS011;25529;49.346;20.886;2023-03-19T00:09:36;55.22;;;26.33;;
39860;SDS011;25529;49.346;20.886;2023-03-19T00:18:07;54.25;;;24.70;;
39860;SDS011;25529;49.346;20.886;2023-03-19T00:20:34;58.90;;;27.25;;
39860;SDS011;25529;49.346;20.886;2023-03-19T00:23:00;59.80;;;27.98;;
39860;SDS011;25529;49.346;20.886;2023-03-19T00:25:27;56.65;;;26.45;;
39860;SDS011;25529;49.346;20.886;2023-03-19T00:27:52;55.80;;;25.75;;
39860;SDS011;25529;49.346;20.886;2023-03-19T00:33:09;52.30;;;24.38;;
39860;SDS011;25529;49.346;20.886;2023-03-19T00:38:37;52.88;;;26.08;;
39860;SDS011;25529;49.346;20.886;2023-03-19T00:41:05;49.17;;;22.13;;
39860;SDS011;25529;49.346;20.886;2023-03-19T00:43:31;49.50;;;22.90;;
39860;SDS011;25529;49.346;20.886;2023-03-19T00:48:59;50.10;;;21.73;;
39860;SDS011;25529;49.346;20.886;2023-03-19T00:51:26;50.80;;;23.13;;
39860;SDS011;25529;49.346;20.886;2023-03-19T00:56:54;48.47;;;21.42;;
39860;SDS011;25529;49.346;20.886;2023-03-19T01:02:24;45.70;;;20.67;;
39860;SDS011;25529;49.346;20.886;2023-03-19T01:04:58;46.38;;;21.20;;
39860;SDS011;25529;49.346;20.886;2023-03-19T01:07:23;44.58;;;20.05;;
39860;SDS011;25529;49.346;20.886;2023-03-19T01:09:49;41.28;;;18.52;;
39860;SDS011;25529;49.346;20.886;2023-03-19T01:15:17;49.13;;;19.80;;
39860;SDS011;25529;49.346;20.886;2023-03-19T01:20:47;46.70;;;20.60;;
39860;SDS011;25529;49.346;20.886;2023-03-19T01:23:12;45.35;;;21.05;;
39860;SDS011;25529;49.346;20.886;2023-03-19T01:25:38;44.50;;;20.00;;
39860;SDS011;25529;49.346;20.886;2023-03-19T01:31:07;47.40;;;20.88;;
39860;SDS011;25529;49.346;20.886;2023-03-19T01:36:35;45.73;;;20.90;;
39860;SDS011;25529;49.346;20.886;2023-03-19T01:42:16;45.35;;;19.42;;
39860;SDS011;25529;49.346;20.886;2023-03-19T01:44:49;46.05;;;20.92;;
39860;SDS011;25529;49.346;20.886;2023-03-19T01:47:24;46.85;;;20.45;;
39860;SDS011;25529;49.346;20.886;2023-03-19T01:50:23;44.72;;;20.23;;
39860;SDS011;25529;49.346;20.886;2023-03-19T01:55:46;42.60;;;18.67;;
39860;SDS011;25529;49.346;20.886;2023-03-19T01:58:12;42.10;;;17.75;;
39860;SDS011;25529;49.346;20.886;2023-03-19T02:00:38;42.80;;;19.23;;
39860;SDS011;25529;49.346;20.886;2023-03-19T02:06:06;40.50;;;19.80;;
39860;SDS011;25529;49.346;20.886;2023-03-19T02:14:21;39.85;;;18.15;;
39860;SDS011;25529;49.346;20.886;2023-03-19T02:22:33;50.50;;;21.52;;
39860;SDS011;25529;49.346;20.886;2023-03-19T02:28:03;47.17;;;20.48;;
39860;SDS011;25529;49.346;20.886;2023-03-19T02:33:32;45.83;;;20.73;;
39860;SDS011;25529;49.346;20.886;2023-03-19T02:39:00;37.17;;;15.97;;
39860;SDS011;25529;49.346;20.886;2023-03-19T02:41:27;36.25;;;16.08;;
39860;SDS011;25529;49.346;20.886;2023-03-19T02:46:55;41.75;;;16.75;;
39860;SDS011;25529;49.346;20.886;2023-03-19T02:52:23;40.08;;;16.67;;
39860;SDS011;25529;49.346;20.886;2023-03-19T02:54:49;36.55;;;14.80;;
39860;SDS011;25529;49.346;20.886;2023-03-19T02:57:14;35.78;;;15.40;;
39860;SDS011;25529;49.346;20.886;2023-03-19T03:02:43;36.88;;;15.88;;
39860;SDS011;25529;49.346;20.886;2023-03-19T03:05:08;41.13;;;16.65;;
39860;SDS011;25529;49.346;20.886;2023-03-19T03:10:36;39.33;;;16.50;;
39860;SDS011;25529;49.346;20.886;2023-03-19T03:13:02;42.53;;;18.50;;
39860;SDS011;25529;49.346;20.886;2023-03-19T03:18:30;40.90;;;15.60;;
39860;SDS011;25529;49.346;20.886;2023-03-19T03:20:55;35.83;;;14.60;;
39860;SDS011;25529;49.346;20.886;2023-03-19T03:23:20;40.05;;;15.70;;
39860;SDS011;25529;49.346;20.886;2023-03-19T03:25:49;39.42;;;16.08;;
39860;SDS011;25529;49.346;20.886;2023-03-19T03:28:17;36.92;;;16.63;;
39860;SDS011;25529;49.346;20.886;2023-03-19T03:30:43;39.75;;;16.65;;
39860;SDS011;25529;49.346;20.886;2023-03-19T03:33:09;37.38;;;16.25;;
39860;SDS011;25529;49.346;20.886;2023-03-19T03:35:34;39.05;;;16.75;;
39860;SDS011;25529;49.346;20.886;2023-03-19T03:38:00;40.65;;;18.23;;
39860;SDS011;25529;49.346;20.886;2023-03-19T03:40:26;39.00;;;17.45;;
39860;SDS011;25529;49.346;20.886;2023-03-19T03:42:53;39.65;;;17.95;;
39860;SDS011;25529;49.346;20.886;2023-03-19T03:45:18;38.83;;;16.38;;
39860;SDS011;25529;49.346;20.886;2023-03-19T03:47:44;41.40;;;17.38;;
39860;SDS011;25529;49.346;20.886;2023-03-19T03:50:10;42.42;;;18.30;;
39860;SDS011;25529;49.346;20.886;2023-03-19T03:52:37;40.45;;;18.23;;
39860;SDS011;25529;49.346;20.886;2023-03-19T03:55:02;42.33;;;17.75;;
39860;SDS011;25529;49.346;20.886;2023-03-19T03:57:28;40.17;;;17.55;;
39860;SDS011;25529;49.346;20.886;2023-03-19T03:59:54;38.83;;;17.35;;
39860;SDS011;25529;49.346;20.886;2023-03-19T04:02:20;38.28;;;16.05;;
39860;SDS011;25529;49.346;20.886;2023-03-19T04:04:45;39.13;;;16.27;;
39860;SDS011;25529;49.346;20.886;2023-03-19T04:07:11;38.22;;;16.38;;
39860;SDS011;25529;49.346;20.886;2023-03-19T04:09:37;42.38;;;17.30;;
39860;SDS011;25529;49.346;20.886;2023-03-19T04:12:02;36.60;;;17.02;;
39860;SDS011;25529;49.346;20.886;2023-03-19T04:14:28;40.42;;;17.85;;
39860;SDS011;25529;49.346;20.886;2023-03-19T04:16:53;37.92;;;16.40;;
39860;SDS011;25529;49.346;20.886;2023-03-19T04:19:19;41.92;;;17.05;;
39860;SDS011;25529;49.346;20.886;2023-03-19T04:21:44;40.28;;;15.13;;
39860;SDS011;25529;49.346;20.886;2023-03-19T04:24:11;40.50;;;16.42;;
39860;SDS011;25529;49.346;20.886;2023-03-19T04:26:36;40.90;;;17.23;;
39860;SDS011;25529;49.346;20.886;2023-03-19T04:29:02;40.80;;;16.88;;
39860;SDS011;25529;49.346;20.886;2023-03-19T04:31:27;40.40;;;16.48;;
39860;SDS011;25529;49.346;20.886;2023-03-19T04:33:53;38.63;;;16.92;;
39860;SDS011;25529;49.346;20.886;2023-03-19T04:36:18;41.67;;;17.60;;
39860;SDS011;25529;49.346;20.886;2023-03-19T04:38:44;37.15;;;15.63;;
39860;SDS011;25529;49.346;20.886;2023-03-19T04:41:09;39.55;;;16.55;;
39860;SDS011;25529;49.346;20.886;2023-03-19T04:43:36;41.08;;;17.08;;
39860;SDS011;25529;49.346;20.886;2023-03-19T04:46:01;37.60;;;16.23;;
39860;SDS011;25529;49.346;20.886;2023-03-19T04:48:26;38.88;;;15.93;;
39860;SDS011;25529;49.346;20.886;2023-03-19T04:50:52;42.20;;;17.75;;
39860;SDS011;25529;49.346;20.886;2023-03-19T04:53:21;40.40;;;17.35;;
39860;SDS011;25529;49.346;20.886;2023-03-19T04:55:46;38.72;;;17.08;;
39860;SDS011;25529;49.346;20.886;2023-03-19T04:58:13;36.30;;;16.27;;
39860;SDS011;25529;49.346;20.886;2023-03-19T05:00:38;40.30;;;16.48;;
39860;SDS011;25529;49.346;20.886;2023-03-19T05:03:04;38.45;;;16.42;;
39860;SDS011;25529;49.346;20.886;2023-03-19T05:05:32;40.00;;;16.48;;
39860;SDS011;25529;49.346;20.886;2023-03-19T05:07:57;41.17;;;17.45;;
39860;SDS011;25529;49.346;20.886;2023-03-19T05:10:23;36.28;;;16.88;;
39860;SDS011;25529;49.346;20.886;2023-03-19T05:12:50;36.67;;;16.45;;
39860;SDS011;25529;49.346;20.886;2023-03-19T05:15:16;41.20;;;17.13;;
39860;SDS011;25529;49.346;20.886;2023-03-19T05:17:42;41.28;;;17.73;;
39860;SDS011;25529;49.346;20.886;2023-03-19T05:20:09;38.55;;;16.90;;
39860;SDS011;25529;49.346;20.886;2023-03-19T05:22:35;37.55;;;16.20;;
39860;SDS011;25529;49.346;20.886;2023-03-19T05:25:01;38.88;;;15.82;;
39860;SDS011;25529;49.346;20.886;2023-03-19T05:27:28;35.10;;;15.93;;
39860;SDS011;25529;49.346;20.886;2023-03-19T05:29:53;37.45;;;16.42;;
39860;SDS011;25529;49.346;20.886;2023-03-19T05:32:18;37.53;;;16.15;;
39860;SDS011;25529;49.346;20.886;2023-03-19T05:34:44;41.58;;;17.17;;
39860;SDS011;25529;49.346;20.886;2023-03-19T05:37:09;38.35;;;16.65;;
39860;SDS011;25529;49.346;20.886;2023-03-19T05:39:35;38.10;;;15.85;;
39860;SDS011;25529;49.346;20.886;2023-03-19T05:42:00;38.80;;;16.48;;
39860;SDS011;25529;49.346;20.886;2023-03-19T05:44:25;38.50;;;16.35;;
39860;SDS011;25529;49.346;20.886;2023-03-19T05:46:51;40.80;;;17.20;;
39860;SDS011;25529;49.346;20.886;2023-03-19T05:49:17;40.28;;;17.40;;
39860;SDS011;25529;49.346;20.886;2023-03-19T05:51:42;40.50;;;17.15;;
39860;SDS011;25529;49.346;20.886;2023-03-19T05:54:07;37.30;;;16.52;;
39860;SDS011;25529;49.346;20.886;2023-03-19T05:56:33;36.35;;;16.23;;
39860;SDS011;25529;49.346;20.886;2023-03-19T05:58:58;34.45;;;15.90;;
39860;SDS011;25529;49.346;20.886;2023-03-19T06:01:24;38.33;;;16.90;;
39860;SDS011;25529;49.346;20.886;2023-03-19T06:03:50;41.38;;;16.05;;
39860;SDS011;25529;49.346;20.886;2023-03-19T06:06:15;34.40;;;14.68;;
39860;SDS011;25529;49.346;20.886;2023-03-19T06:08:41;36.55;;;16.70;;
39860;SDS011;25529;49.346;20.886;2023-03-19T06:11:07;33.70;;;14.65;;
39860;SDS011;25529;49.346;20.886;2023-03-19T06:13:33;37.63;;;16.27;;
39860;SDS011;25529;49.346;20.886;2023-03-19T06:15:58;34.38;;;14.82;;
39860;SDS011;25529;49.346;20.886;2023-03-19T06:18:23;35.00;;;15.23;;
39860;SDS011;25529;49.346;20.886;2023-03-19T06:20:49;33.08;;;14.60;;
39860;SDS011;25529;49.346;20.886;2023-03-19T06:23:14;33.47;;;13.68;;
39860;SDS011;25529;49.346;20.886;2023-03-19T06:25:41;41.25;;;15.85;;
39860;SDS011;25529;49.346;20.886;2023-03-19T06:28:07;38.67;;;16.83;;
39860;SDS011;25529;49.346;20.886;2023-03-19T06:30:33;37.72;;;16.60;;
39860;SDS011;25529;49.346;20.886;2023-03-19T06:32:58;42.60;;;17.25;;
39860;SDS011;25529;49.346;20.886;2023-03-19T06:38:27;49.33;;;25.30;;
39860;SDS011;25529;49.346;20.886;2023-03-19T06:40:52;38.50;;;16.50;;
39860;SDS011;25529;49.346;20.886;2023-03-19T06:43:17;143.30;;;95.50;;
39860;SDS011;25529;49.346;20.886;2023-03-19T06:45:44;43.80;;;23.02;;
39860;SDS011;25529;49.346;20.886;2023-03-19T06:48:11;28.58;;;12.30;;
39860;SDS011;25529;49.346;20.886;2023-03-19T06:50:36;29.08;;;11.52;;
39860;SDS011;25529;49.346;20.886;2023-03-19T06:53:02;32.58;;;12.45;;
39860;SDS011;25529;49.346;20.886;2023-03-19T06:55:27;34.33;;;13.30;;
39860;SDS011;25529;49.346;20.886;2023-03-19T06:57:55;30.77;;;12.13;;
39860;SDS011;25529;49.346;20.886;2023-03-19T07:00:20;31.10;;;11.50;;
39860;SDS011;25529;49.346;20.886;2023-03-19T07:02:46;30.75;;;12.20;;
39860;SDS011;25529;49.346;20.886;2023-03-19T07:05:11;31.42;;;12.55;;
39860;SDS011;25529;49.346;20.886;2023-03-19T07:07:37;29.40;;;11.45;;
39860;SDS011;25529;49.346;20.886;2023-03-19T07:10:02;25.13;;;10.32;;
39860;SDS011;25529;49.346;20.886;2023-03-19T07:12:28;47.33;;;22.38;;
39860;SDS011;25529;49.346;20.886;2023-03-19T07:14:54;47.90;;;22.48;;
39860;SDS011;25529;49.346;20.886;2023-03-19T07:17:22;31.80;;;12.32;;
39860;SDS011;25529;49.346;20.886;2023-03-19T07:19:48;27.02;;;10.80;;
39860;SDS011;25529;49.346;20.886;2023-03-19T07:22:14;28.77;;;11.65;;
39860;SDS011;25529;49.346;20.886;2023-03-19T07:24:40;33.25;;;13.75;;
39860;SDS011;25529;49.346;20.886;2023-03-19T07:27:05;29.30;;;12.02;;
39860;SDS011;25529;49.346;20.886;2023-03-19T07:29:30;25.55;;;9.68;;
39860;SDS011;25529;49.346;20.886;2023-03-19T07:31:56;26.42;;;9.93;;
39860;SDS011;25529;49.346;20.886;2023-03-19T07:34:21;26.70;;;9.63;;
39860;SDS011;25529;49.346;20.886;2023-03-19T07:36:47;30.73;;;11.93;;
39860;SDS011;25529;49.346;20.886;2023-03-19T07:39:14;56.05;;;33.22;;
39860;SDS011;25529;49.346;20.886;2023-03-19T07:41:39;33.90;;;16.33;;
39860;SDS011;25529;49.346;20.886;2023-03-19T07:44:05;28.38;;;12.63;;
39860;SDS011;25529;49.346;20.886;2023-03-19T07:46:30;22.52;;;8.43;;
39860;SDS011;25529;49.346;20.886;2023-03-19T07:48:56;25.27;;;9.07;;
39860;SDS011;25529;49.346;20.886;2023-03-19T07:51:21;24.02;;;9.02;;
39860;SDS011;25529;49.346;20.886;2023-03-19T07:53:48;20.80;;;7.97;;
39860;SDS011;25529;49.346;20.886;2023-03-19T07:56:13;22.73;;;8.65;;
39860;SDS011;25529;49.346;20.886;2023-03-19T07:58:39;20.70;;;8.00;;
39860;SDS011;25529;49.346;20.886;2023-03-19T08:01:04;45.80;;;20.00;;
39860;SDS011;25529;49.346;20.886;2023-03-19T08:03:31;29.08;;;12.23;;
39860;SDS011;25529;49.346;20.886;2023-03-19T08:05:57;26.40;;;10.75;;
39860;SDS011;25529;49.346;20.886;2023-03-19T08:08:23;25.98;;;11.27;;
39860;SDS011;25529;49.346;20.886;2023-03-19T08:10:49;27.65;;;11.82;;
39860;SDS011;25529;49.346;20.886;2023-03-19T08:13:14;22.77;;;8.63;;
39860;SDS011;25529;49.346;20.886;2023-03-19T08:15:40;20.73;;;7.43;;
39860;SDS011;25529;49.346;20.886;2023-03-19T08:18:05;20.63;;;7.55;;
39860;SDS011;25529;49.346;20.886;2023-03-19T08:20:31;19.08;;;6.65;;
39860;SDS011;25529;49.346;20.886;2023-03-19T08:22:57;17.52;;;6.20;;
39860;SDS011;25529;49.346;20.886;2023-03-19T08:25:22;19.27;;;6.72;;
39860;SDS011;25529;49.346;20.886;2023-03-19T08:27:48;22.35;;;8.48;;
39860;SDS011;25529;49.346;20.886;2023-03-19T08:30:14;23.95;;;9.43;;
39860;SDS011;25529;49.346;20.886;2023-03-19T08:32:40;24.88;;;9.98;;
39860;SDS011;25529;49.346;20.886;2023-03-19T08:35:05;24.73;;;8.73;;
39860;SDS011;25529;49.346;20.886;2023-03-19T08:37:31;27.65;;;11.02;;
39860;SDS011;25529;49.346;20.886;2023-03-19T08:39:56;23.40;;;9.90;;
39860;SDS011;25529;49.346;20.886;2023-03-19T08:42:22;23.88;;;9.50;;
39860;SDS011;25529;49.346;20.886;2023-03-19T08:44:48;20.17;;;7.10;;
39860;SDS011;25529;49.346;20.886;2023-03-19T08:47:13;19.35;;;6.82;;
39860;SDS011;25529;49.346;20.886;2023-03-19T08:49:39;18.15;;;6.55;;
39860;SDS011;25529;49.346;20.886;2023-03-19T08:52:05;17.98;;;6.20;;
39860;SDS011;25529;49.346;20.886;2023-03-19T08:54:30;19.25;;;6.13;;
39860;SDS011;25529;49.346;20.886;2023-03-19T08:56:56;19.73;;;6.32;;
39860;SDS011;25529;49.346;20.886;2023-03-19T08:59:21;19.33;;;6.63;;
39860;SDS011;25529;49.346;20.886;2023-03-19T09:01:53;18.85;;;6.15;;
39860;SDS011;25529;49.346;20.886;2023-03-19T09:04:21;17.95;;;6.22;;
39860;SDS011;25529;49.346;20.886;2023-03-19T09:06:47;19.90;;;6.30;;
39860;SDS011;25529;49.346;20.886;2023-03-19T09:09:19;17.63;;;6.03;;
39860;SDS011;25529;49.346;20.886;2023-03-19T09:11:45;18.75;;;6.35;;
39860;SDS011;25529;49.346;20.886;2023-03-19T09:14:11;17.73;;;6.70;;
39860;SDS011;25529;49.346;20.886;2023-03-19T09:16:37;17.83;;;5.90;;
39860;SDS011;25529;49.346;20.886;2023-03-19T09:19:02;18.08;;;5.82;;
39860;SDS011;25529;49.346;20.886;2023-03-19T09:21:28;18.35;;;5.80;;
39860;SDS011;25529;49.346;20.886;2023-03-19T09:23:53;23.02;;;8.85;;
39860;SDS011;25529;49.346;20.886;2023-03-19T09:26:20;28.55;;;12.60;;
39860;SDS011;25529;49.346;20.886;2023-03-19T09:28:49;27.23;;;10.68;;
39860;SDS011;25529;49.346;20.886;2023-03-19T09:31:15;28.52;;;13.02;;
39860;SDS011;25529;49.346;20.886;2023-03-19T09:33:41;19.70;;;6.93;;
39860;SDS011;25529;49.346;20.886;2023-03-19T09:36:06;17.58;;;6.38;;
39860;SDS011;25529;49.346;20.886;2023-03-19T09:38:31;18.83;;;6.38;;
39860;SDS011;25529;49.346;20.886;2023-03-19T09:43:30;15.18;;;5.22;;
39860;SDS011;25529;49.346;20.886;2023-03-19T09:45:58;21.83;;;7.90;;
39860;SDS011;25529;49.346;20.886;2023-03-19T09:48:38;28.77;;;12.68;;
39860;SDS011;25529;49.346;20.886;2023-03-19T09:51:05;23.13;;;8.98;;
39860;SDS011;25529;49.346;20.886;2023-03-19T09:53:42;20.58;;;7.20;;
39860;SDS011;25529;49.346;20.886;2023-03-19T09:56:11;19.60;;;6.95;;
39860;SDS011;25529;49.346;20.886;2023-03-19T09:58:38;18.02;;;6.70;;
39860;SDS011;25529;49.346;20.886;2023-03-19T10:01:03;20.42;;;6.53;;
39860;SDS011;25529;49.346;20.886;2023-03-19T10:08:25;17.98;;;6.10;;
39860;SDS011;25529;49.346;20.886;2023-03-19T10:15:52;18.90;;;6.38;;
39860;SDS011;25529;49.346;20.886;2023-03-19T10:20:45;15.57;;;5.50;;
39860;SDS011;25529;49.346;20.886;2023-03-19T10:23:18;17.67;;;6.07;;
39860;SDS011;25529;49.346;20.886;2023-03-19T10:25:47;17.00;;;6.30;;
39860;SDS011;25529;49.346;20.886;2023-03-19T10:28:14;18.80;;;6.68;;
39860;SDS011;25529;49.346;20.886;2023-03-19T10:30:41;19.60;;;6.80;;
39860;SDS011;25529;49.346;20.886;2023-03-19T10:33:24;14.90;;;5.63;;
39860;SDS011;25529;49.346;20.886;2023-03-19T10:36:01;17.75;;;5.68;;
39860;SDS011;25529;49.346;20.886;2023-03-19T10:38:28;24.30;;;8.90;;
39860;SDS011;25529;49.346;20.886;2023-03-19T10:43:34;23.15;;;8.63;;
39860;SDS011;25529;49.346;20.886;2023-03-19T10:46:11;19.48;;;6.70;;
39860;SDS011;25529;49.346;20.886;2023-03-19T10:48:45;38.40;;;18.65;;
39860;SDS011;25529;49.346;20.886;2023-03-19T10:51:23;30.63;;;14.93;;
39860;SDS011;25529;49.346;20.886;2023-03-19T10:54:22;27.08;;;12.43;;
39860;SDS011;25529;49.346;20.886;2023-03-19T10:56:48;26.98;;;9.80;;
39860;SDS011;25529;49.346;20.886;2023-03-19T10:59:32;21.70;;;8.32;;
39860;SDS011;25529;49.346;20.886;2023-03-19T11:02:06;20.65;;;7.57;;
39860;SDS011;25529;49.346;20.886;2023-03-19T11:04:38;20.77;;;6.45;;
39860;SDS011;25529;49.346;20.886;2023-03-19T11:07:13;18.23;;;6.45;;
39860;SDS011;25529;49.346;20.886;2023-03-19T11:09:45;19.10;;;6.13;;
39860;SDS011;25529;49.346;20.886;2023-03-19T11:14:40;18.75;;;5.85;;
39860;SDS011;25529;49.346;20.886;2023-03-19T11:19:54;17.50;;;5.82;;
39860;SDS011;25529;49.346;20.886;2023-03-19T11:22:35;18.63;;;5.80;;
39860;SDS011;25529;49.346;20.886;2023-03-19T11:28:13;17.83;;;6.10;;
39860;SDS011;25529;49.346;20.886;2023-03-19T11:41:28;17.67;;;6.13;;
39860;SDS011;25529;49.346;20.886;2023-03-19T11:44:05;18.17;;;6.10;;
39860;SDS011;25529;49.346;20.886;2023-03-19T11:49:33;19.40;;;5.97;;
39860;SDS011;25529;49.346;20.886;2023-03-19T11:57:13;15.00;;;5.53;;
39860;SDS011;25529;49.346;20.886;2023-03-19T11:59:51;16.33;;;5.55;;
39860;SDS011;25529;49.346;20.886;2023-03-19T12:07:18;15.93;;;5.53;;
39860;SDS011;25529;49.346;20.886;2023-03-19T12:12:24;16.45;;;5.45;;
39860;SDS011;25529;49.346;20.886;2023-03-19T12:19:47;18.15;;;5.85;;
39860;SDS011;25529;49.346;20.886;2023-03-19T12:25:16;17.48;;;5.63;;
39860;SDS011;25529;49.346;20.886;2023-03-19T12:27:50;17.35;;;5.78;;
39860;SDS011;25529;49.346;20.886;2023-03-19T12:33:03;16.60;;;5.63;;
39860;SDS011;25529;49.346;20.886;2023-03-19T12:35:33;17.88;;;6.00;;
39860;SDS011;25529;49.346;20.886;2023-03-19T12:38:03;20.55;;;5.95;;
39860;SDS011;25529;49.346;20.886;2023-03-19T12:43:05;17.20;;;5.78;;
39860;SDS011;25529;49.346;20.886;2023-03-19T12:45:33;19.00;;;5.68;;
39860;SDS011;25529;49.346;20.886;2023-03-19T12:48:09;16.65;;;5.63;;
39860;SDS011;25529;49.346;20.886;2023-03-19T12:50:38;17.20;;;5.70;;
39860;SDS011;25529;49.346;20.886;2023-03-19T12:53:06;17.35;;;5.80;;
39860;SDS011;25529;49.346;20.886;2023-03-19T12:55:36;19.40;;;6.72;;
39860;SDS011;25529;49.346;20.886;2023-03-19T12:58:04;16.65;;;5.43;;
39860;SDS011;25529;49.346;20.886;2023-03-19T13:03:20;20.73;;;7.40;;
39860;SDS011;25529;49.346;20.886;2023-03-19T13:11:12;16.30;;;5.43;;
39860;SDS011;25529;49.346;20.886;2023-03-19T13:13:47;21.02;;;6.78;;
39860;SDS011;25529;49.346;20.886;2023-03-19T13:21:30;20.25;;;6.65;;
39860;SDS011;25529;49.346;20.886;2023-03-19T13:24:05;19.50;;;6.30;;
39860;SDS011;25529;49.346;20.886;2023-03-19T13:26:33;19.15;;;6.10;;
39860;SDS011;25529;49.346;20.886;2023-03-19T13:31:34;17.67;;;5.80;;
39860;SDS011;25529;49.346;20.886;2023-03-19T13:34:01;18.33;;;5.80;;
39860;SDS011;25529;49.346;20.886;2023-03-19T13:36:27;16.38;;;5.18;;
39860;SDS011;25529;49.346;20.886;2023-03-19T13:38:54;17.13;;;5.32;;
39860;SDS011;25529;49.346;20.886;2023-03-19T13:46:47;16.42;;;5.97;;
39860;SDS011;25529;49.346;20.886;2023-03-19T13:51:56;16.60;;;5.38;;
39860;SDS011;25529;49.346;20.886;2023-03-19T13:54:31;17.58;;;5.53;;
39860;SDS011;25529;49.346;20.886;2023-03-19T14:02:46;17.40;;;5.55;;
39860;SDS011;25529;49.346;20.886;2023-03-19T14:07:33;15.65;;;5.20;;
39860;SDS011;25529;49.346;20.886;2023-03-19T14:12:38;17.45;;;6.00;;
39860;SDS011;25529;49.346;20.886;2023-03-19T14:17:31;18.23;;;5.80;;
39860;SDS011;25529;49.346;20.886;2023-03-19T14:19:59;15.35;;;5.20;;
39860;SDS011;25529;49.346;20.886;2023-03-19T14:27:27;17.63;;;5.68;;
39860;SDS011;25529;49.346;20.886;2023-03-19T14:29:57;19.80;;;6.43;;
39860;SDS011;25529;49.346;20.886;2023-03-19T14:32:24;19.13;;;5.90;;
39860;SDS011;25529;49.346;20.886;2023-03-19T14:34:52;16.08;;;5.45;;
39860;SDS011;25529;49.346;20.886;2023-03-19T14:37:24;17.60;;;5.60;;
39860;SDS011;25529;49.346;20.886;2023-03-19T14:40:02;18.42;;;6.57;;
39860;SDS011;25529;49.346;20.886;2023-03-19T14:42:52;19.92;;;6.45;;
39860;SDS011;25529;49.346;20.886;2023-03-19T14:53:40;20.27;;;6.93;;
39860;SDS011;25529;49.346;20.886;2023-03-19T14:55:48;18.13;;;6.28;;
39860;SDS011;25529;49.346;20.886;2023-03-19T14:58:14;17.02;;;5.85;;
39860;SDS011;25529;49.346;20.886;2023-03-19T15:00:50;18.73;;;6.28;;
39860;SDS011;25529;49.346;20.886;2023-03-19T15:05:50;19.67;;;6.70;;
39860;SDS011;25529;49.346;20.886;2023-03-19T15:08:21;20.65;;;6.93;;
39860;SDS011;25529;49.346;20.886;2023-03-19T15:29:00;18.92;;;6.20;;
39860;SDS011;25529;49.346;20.886;2023-03-19T15:34:23;17.17;;;5.70;;
39860;SDS011;25529;49.346;20.886;2023-03-19T15:36:51;17.52;;;6.18;;
39860;SDS011;25529;49.346;20.886;2023-03-19T15:39:17;18.60;;;5.60;;
39860;SDS011;25529;49.346;20.886;2023-03-19T15:41:44;18.00;;;5.80;;
39860;SDS011;25529;49.346;20.886;2023-03-19T15:44:16;17.67;;;6.05;;
39860;SDS011;25529;49.346;20.886;2023-03-19T15:46:42;15.37;;;5.43;;
39860;SDS011;25529;49.346;20.886;2023-03-19T15:51:34;20.90;;;6.30;;
39860;SDS011;25529;49.346;20.886;2023-03-19T15:54:00;19.13;;;6.35;;
39860;SDS011;25529;49.346;20.886;2023-03-19T15:56:26;15.60;;;5.35;;
39860;SDS011;25529;49.346;20.886;2023-03-19T15:58:54;19.42;;;6.07;;
39860;SDS011;25529;49.346;20.886;2023-03-19T16:01:21;16.80;;;5.65;;
39860;SDS011;25529;49.346;20.886;2023-03-19T16:03:57;17.50;;;5.68;;
39860;SDS011;25529;49.346;20.886;2023-03-19T16:06:30;17.42;;;5.88;;
39860;SDS011;25529;49.346;20.886;2023-03-19T16:09:06;21.08;;;6.93;;
39860;SDS011;25529;49.346;20.886;2023-03-19T16:11:35;18.17;;;5.82;;
39860;SDS011;25529;49.346;20.886;2023-03-19T16:14:08;18.52;;;5.68;;
39860;SDS011;25529;49.346;20.886;2023-03-19T16:16:34;19.05;;;6.03;;
39860;SDS011;25529;49.346;20.886;2023-03-19T16:19:04;17.70;;;6.05;;
39860;SDS011;25529;49.346;20.886;2023-03-19T16:21:37;22.17;;;7.00;;
39860;SDS011;25529;49.346;20.886;2023-03-19T16:26:52;22.10;;;6.60;;
39860;SDS011;25529;49.346;20.886;2023-03-19T16:31:50;17.92;;;5.93;;
39860;SDS011;25529;49.346;20.886;2023-03-19T16:34:30;20.33;;;6.80;;
39860;SDS011;25529;49.346;20.886;2023-03-19T16:36:58;22.35;;;7.10;;
39860;SDS011;25529;49.346;20.886;2023-03-19T16:39:34;18.55;;;6.10;;
39860;SDS011;25529;49.346;20.886;2023-03-19T16:42:13;18.92;;;6.30;;
39860;SDS011;25529;49.346;20.886;2023-03-19T16:44:39;19.08;;;6.80;;
39860;SDS011;25529;49.346;20.886;2023-03-19T16:47:11;22.05;;;8.00;;
39860;SDS011;25529;49.346;20.886;2023-03-19T16:49:37;19.27;;;6.78;;
39860;SDS011;25529;49.346;20.886;2023-03-19T16:54:50;19.55;;;6.95;;
39860;SDS011;25529;49.346;20.886;2023-03-19T16:57:16;21.50;;;7.65;;
39860;SDS011;25529;49.346;20.886;2023-03-19T16:59:41;24.30;;;8.48;;
39860;SDS011;25529;49.346;20.886;2023-03-19T17:02:10;21.98;;;7.60;;
39860;SDS011;25529;49.346;20.886;2023-03-19T17:04:37;26.33;;;9.98;;
39860;SDS011;25529;49.346;20.886;2023-03-19T17:07:02;27.58;;;11.77;;
39860;SDS011;25529;49.346;20.886;2023-03-19T17:09:37;30.52;;;11.98;;
39860;SDS011;25529;49.346;20.886;2023-03-19T17:12:06;30.85;;;12.02;;
39860;SDS011;25529;49.346;20.886;2023-03-19T17:14:32;27.70;;;10.75;;
39860;SDS011;25529;49.346;20.886;2023-03-19T17:16:58;27.75;;;10.77;;
39860;SDS011;25529;49.346;20.886;2023-03-19T17:19:32;25.25;;;10.88;;
39860;SDS011;25529;49.346;20.886;2023-03-19T17:21:58;43.40;;;21.88;;
39860;SDS011;25529;49.346;20.886;2023-03-19T17:24:31;33.63;;;15.82;;
39860;SDS011;25529;49.346;20.886;2023-03-19T17:30:00;28.13;;;11.40;;
39860;SDS011;25529;49.346;20.886;2023-03-19T17:35:28;33.97;;;14.38;;
39860;SDS011;25529;49.346;20.886;2023-03-19T17:37:53;31.88;;;13.73;;
39860;SDS011;25529;49.346;20.886;2023-03-19T17:40:21;32.80;;;13.60;;
39860;SDS011;25529;49.346;20.886;2023-03-19T17:42:47;33.10;;;13.23;;
39860;SDS011;25529;49.346;20.886;2023-03-19T17:45:14;33.88;;;13.23;;
39860;SDS011;25529;49.346;20.886;2023-03-19T17:47:45;32.35;;;12.65;;
39860;SDS011;25529;49.346;20.886;2023-03-19T17:50:16;33.35;;;13.02;;
39860;SDS011;25529;49.346;20.886;2023-03-19T17:52:42;31.08;;;12.93;;
39860;SDS011;25529;49.346;20.886;2023-03-19T17:58:00;30.75;;;13.07;;
39860;SDS011;25529;49.346;20.886;2023-03-19T18:00:26;45.75;;;24.42;;
39860;SDS011;25529;49.346;20.886;2023-03-19T18:08:56;35.38;;;14.60;;
39860;SDS011;25529;49.346;20.886;2023-03-19T18:11:22;32.03;;;13.35;;
39860;SDS011;25529;49.346;20.886;2023-03-19T18:21:58;37.95;;;17.50;;
39860;SDS011;25529;49.346;20.886;2023-03-19T18:24:24;41.33;;;18.05;;
39860;SDS011;25529;49.346;20.886;2023-03-19T18:26:49;39.30;;;16.42;;
39860;SDS011;25529;49.346;20.886;2023-03-19T18:29:15;50.60;;;26.95;;
39860;SDS011;25529;49.346;20.886;2023-03-19T18:31:41;44.30;;;19.90;;